Time;durP1;ratioP1;P1;durP2;ratioP2;P2;SDS_P1;SDS_P2;PMS_P1;PMS_P2;Temp;Humidity;BMP_temperature;BMP_pressure;BME280_temperature;BME280_humidity;BME280_pressure;Samples;Min_cycle;Max_cycle;Signal;HPM_P1;HPM_P2
2022/11/10 00:01:22;;;;;;;44.33;27.23;;;;;;;;;;4976599;28;20033;-74
2022/11/10 00:07:41;;;;;;;44.42;27.23;;;;;;;;;;4976408;28;20443;-75
2022/11/10 00:20:51;;;;;;;41.35;25.13;;;;;;;;;;4976942;28;20025;-75
2022/11/10 00:27:10;;;;;;;45.85;27.65;;;;;;;;;;4976597;28;20542;-75
2022/11/10 00:33:32;;;;;;;38.63;24.35;;;;;;;;;;4976704;28;20066;-75
2022/11/10 00:39:51;;;;;;;39.80;25.13;;;;;;;;;;4976253;28;20105;-75
2022/11/10 00:46:10;;;;;;;38.63;23.98;;;;;;;;;;4976779;28;20046;-77
2022/11/10 00:56:30;;;;;;;37.58;22.75;;;;;;;;;;4975753;28;20441;-75
2022/11/10 01:02:49;;;;;;;34.13;22.40;;;;;;;;;;4976245;28;20065;-75
2022/11/10 01:09:08;;;;;;;31.50;20.15;;;;;;;;;;4975738;28;20081;-75
2022/11/10 01:15:27;;;;;;;30.48;20.38;;;;;;;;;;4975454;28;20033;-78
2022/11/10 01:22:18;;;;;;;34.42;20.85;;;;;;;;;;4987132;23;20053;-76
2022/11/10 01:25:03;;;;;;;35.30;21.67;;;;;;;;;;4954806;29;20113;-76
2022/11/10 01:27:47;;;;;;;31.30;21.02;;;;;;;;;;4955737;28;20082;-77
2022/11/10 01:30:30;;;;;;;31.23;20.08;;;;;;;;;;4956498;29;20105;-76
2022/11/10 01:33:16;;;;;;;29.45;19.15;;;;;;;;;;4956625;29;20392;-78
2022/11/10 01:36:00;;;;;;;30.10;20.48;;;;;;;;;;4955519;29;20034;-77
2022/11/10 01:38:44;;;;;;;33.67;21.27;;;;;;;;;;4955518;29;20046;-76
2022/11/10 01:41:28;;;;;;;32.95;21.88;;;;;;;;;;4955866;29;20190;-75
2022/11/10 01:44:16;;;;;;;33.10;20.23;;;;;;;;;;4956385;29;20081;-75
2022/11/10 01:47:05;;;;;;;32.75;20.67;;;;;;;;;;4956062;29;20050;-75
2022/11/10 01:49:49;;;;;;;28.40;19.23;;;;;;;;;;4955039;29;20082;-75
2022/11/10 01:52:33;;;;;;;30.15;19.35;;;;;;;;;;4955819;29;20046;-75
2022/11/10 01:55:17;;;;;;;28.50;18.92;;;;;;;;;;4956300;29;20101;-75
2022/11/10 01:58:01;;;;;;;27.80;19.33;;;;;;;;;;4955982;29;20137;-75
2022/11/10 02:00:45;;;;;;;28.30;18.75;;;;;;;;;;4955216;29;20098;-76
2022/11/10 02:03:44;;;;;;;28.55;18.80;;;;;;;;;;4955961;29;20066;-75
2022/11/10 02:06:30;;;;;;;29.45;19.45;;;;;;;;;;4955878;29;20102;-75
2022/11/10 02:09:14;;;;;;;25.63;18.00;;;;;;;;;;4955629;29;20038;-75
2022/11/10 02:11:58;;;;;;;27.50;18.17;;;;;;;;;;4956172;29;20050;-75
2022/11/10 02:14:42;;;;;;;26.85;18.25;;;;;;;;;;4955652;29;20078;-74
2022/11/10 02:17:26;;;;;;;27.17;18.15;;;;;;;;;;4955535;29;20518;-75
2022/11/10 02:20:12;;;;;;;27.15;17.33;;;;;;;;;;4956042;29;20042;-74
2022/11/10 02:22:56;;;;;;;25.95;17.33;;;;;;;;;;4962798;28;20101;-72
2022/11/10 02:25:40;;;;;;;27.50;18.38;;;;;;;;;;4974777;28;20399;-73
2022/11/10 02:28:24;;;;;;;29.08;18.73;;;;;;;;;;4973798;28;20041;-72
2022/11/10 02:31:08;;;;;;;30.20;18.88;;;;;;;;;;4973956;28;20041;-72
2022/11/10 02:33:52;;;;;;;29.70;18.70;;;;;;;;;;4974702;28;20467;-72
2022/11/10 02:36:36;;;;;;;27.17;17.55;;;;;;;;;;4975190;28;20379;-72
2022/11/10 02:39:23;;;;;;;29.67;18.55;;;;;;;;;;4976165;28;20050;-72
2022/11/10 02:42:10;;;;;;;28.20;18.55;;;;;;;;;;4977328;28;20037;-72
2022/11/10 02:44:54;;;;;;;29.98;18.75;;;;;;;;;;4978572;28;20610;-73
2022/11/10 02:47:38;;;;;;;29.60;18.65;;;;;;;;;;4978143;28;20509;-72
2022/11/10 02:50:22;;;;;;;29.73;19.45;;;;;;;;;;4978445;28;20037;-73
2022/11/10 02:53:06;;;;;;;30.10;19.27;;;;;;;;;;4977141;28;20034;-73
2022/11/10 02:55:50;;;;;;;29.38;18.27;;;;;;;;;;4978621;28;20077;-73
2022/11/10 02:58:34;;;;;;;29.92;18.92;;;;;;;;;;4978083;28;20077;-73
2022/11/10 03:01:18;;;;;;;26.42;17.17;;;;;;;;;;4981768;28;20046;-73
2022/11/10 03:04:02;;;;;;;29.38;17.73;;;;;;;;;;4980914;28;20106;-73
2022/11/10 03:06:46;;;;;;;27.52;16.90;;;;;;;;;;4977955;28;20398;-73
2022/11/10 03:09:30;;;;;;;27.08;17.27;;;;;;;;;;4978370;28;20065;-73
2022/11/10 03:12:14;;;;;;;28.55;17.67;;;;;;;;;;4978044;28;20081;-75
2022/11/10 03:14:58;;;;;;;27.92;17.00;;;;;;;;;;4977761;28;20042;-74
2022/11/10 03:17:42;;;;;;;26.70;16.75;;;;;;;;;;4977007;28;20058;-74
2022/11/10 03:20:26;;;;;;;28.33;18.00;;;;;;;;;;4977896;28;20045;-74
2022/11/10 03:23:10;;;;;;;27.65;17.30;;;;;;;;;;4977343;28;20546;-75
2022/11/10 03:25:53;;;;;;;25.08;17.38;;;;;;;;;;4977891;28;20037;-75
2022/11/10 03:28:37;;;;;;;26.58;17.15;;;;;;;;;;4977344;28;20069;-74
2022/11/10 03:31:21;;;;;;;28.83;18.38;;;;;;;;;;4976524;28;20084;-74
2022/11/10 03:34:05;;;;;;;25.38;16.02;;;;;;;;;;4977770;28;20053;-74
2022/11/10 03:36:49;;;;;;;27.25;16.48;;;;;;;;;;4977697;28;20046;-75
2022/11/10 03:39:33;;;;;;;25.35;16.05;;;;;;;;;;4978793;28;20097;-76
2022/11/10 03:42:17;;;;;;;29.88;17.20;;;;;;;;;;4978026;28;20029;-77
2022/11/10 03:45:01;;;;;;;28.05;17.40;;;;;;;;;;4978465;28;20041;-76
2022/11/10 03:47:46;;;;;;;25.45;16.60;;;;;;;;;;4978390;28;20038;-76
2022/11/10 03:50:30;;;;;;;26.60;17.13;;;;;;;;;;4976923;28;20089;-76
2022/11/10 03:53:14;;;;;;;27.38;16.92;;;;;;;;;;4976642;28;20074;-76
2022/11/10 03:56:02;;;;;;;27.83;17.60;;;;;;;;;;4977314;28;20474;-73
2022/11/10 03:58:46;;;;;;;29.27;16.77;;;;;;;;;;4976916;28;20126;-73
2022/11/10 04:01:30;;;;;;;28.75;17.45;;;;;;;;;;4976005;28;20073;-72
2022/11/10 04:10:20;;;;;;;24.00;15.77;;;;;;;;;;4976802;28;20034;-75
2022/11/10 04:16:07;;;;;;;26.48;15.40;;;;;;;;;;4977197;28;20486;-75
2022/11/10 04:18:51;;;;;;;27.52;16.50;;;;;;;;;;4977139;28;20050;-75
2022/11/10 04:21:34;;;;;;;25.60;15.85;;;;;;;;;;4977046;28;20045;-75
2022/11/10 04:24:19;;;;;;;26.42;16.20;;;;;;;;;;4976073;28;20104;-73
2022/11/10 04:27:02;;;;;;;25.15;15.90;;;;;;;;;;4976360;28;20046;-73
2022/11/10 04:29:46;;;;;;;23.10;15.48;;;;;;;;;;4976929;28;20078;-73
2022/11/10 04:32:30;;;;;;;27.90;17.17;;;;;;;;;;4975921;28;20061;-72
2022/11/10 04:35:14;;;;;;;29.10;17.30;;;;;;;;;;4976532;28;20049;-72
2022/11/10 04:37:59;;;;;;;25.95;15.85;;;;;;;;;;4976441;28;20042;-72
2022/11/10 04:40:43;;;;;;;24.98;16.15;;;;;;;;;;4976720;28;20498;-74
2022/11/10 04:43:27;;;;;;;35.42;18.05;;;;;;;;;;4975129;28;20065;-74
2022/11/10 04:46:18;;;;;;;28.75;17.35;;;;;;;;;;4976093;28;20077;-74
2022/11/10 04:49:03;;;;;;;32.78;19.58;;;;;;;;;;4975929;28;20049;-72
2022/11/10 04:51:47;;;;;;;36.08;19.33;;;;;;;;;;4975702;28;20102;-74
2022/11/10 04:54:31;;;;;;;38.15;21.55;;;;;;;;;;4974908;28;20041;-74
2022/11/10 04:57:15;;;;;;;40.97;24.33;;;;;;;;;;4976050;28;20045;-74
2022/11/10 04:59:59;;;;;;;45.72;26.40;;;;;;;;;;4976031;28;20061;-74
2022/11/10 05:02:43;;;;;;;42.95;25.83;;;;;;;;;;4974866;28;20442;-72
2022/11/10 05:05:28;;;;;;;35.88;22.45;;;;;;;;;;4975692;28;20049;-72
2022/11/10 05:08:12;;;;;;;32.78;19.55;;;;;;;;;;4975714;28;20510;-76
2022/11/10 05:10:56;;;;;;;32.50;19.80;;;;;;;;;;4976155;28;20065;-74
2022/11/10 05:13:40;;;;;;;36.45;21.58;;;;;;;;;;4975324;28;20438;-74
2022/11/10 05:16:24;;;;;;;35.42;23.13;;;;;;;;;;4975568;28;20081;-73
2022/11/10 05:19:08;;;;;;;33.45;20.92;;;;;;;;;;4974474;28;20097;-72
2022/11/10 05:21:52;;;;;;;36.97;22.30;;;;;;;;;;4976030;28;20133;-70
2022/11/10 05:24:36;;;;;;;33.95;19.88;;;;;;;;;;4975670;28;20053;-71
2022/11/10 05:27:20;;;;;;;31.15;19.20;;;;;;;;;;4975218;28;20057;-71
2022/11/10 05:30:04;;;;;;;33.10;19.15;;;;;;;;;;4974927;28;20065;-71
2022/11/10 05:32:48;;;;;;;35.10;19.90;;;;;;;;;;4975563;28;20105;-71
2022/11/10 05:35:33;;;;;;;30.63;19.75;;;;;;;;;;4975793;28;20061;-73
2022/11/10 05:38:17;;;;;;;32.03;20.05;;;;;;;;;;4975740;28;20510;-74
2022/11/10 05:41:01;;;;;;;34.30;19.35;;;;;;;;;;4975170;28;20085;-73
2022/11/10 05:43:45;;;;;;;32.70;19.27;;;;;;;;;;4974893;28;20038;-73
2022/11/10 05:46:30;;;;;;;36.88;20.88;;;;;;;;;;4975391;28;20058;-74
2022/11/10 05:49:14;;;;;;;35.63;20.45;;;;;;;;;;4974970;28;20110;-74
2022/11/10 05:51:58;;;;;;;32.13;19.60;;;;;;;;;;4975395;28;20066;-74
2022/11/10 05:54:42;;;;;;;32.00;19.67;;;;;;;;;;4974119;28;20097;-74
2022/11/10 05:57:26;;;;;;;28.98;17.60;;;;;;;;;;4975387;28;20097;-73
2022/11/10 06:00:11;;;;;;;33.30;19.25;;;;;;;;;;4975559;28;20094;-73
2022/11/10 06:02:56;;;;;;;32.70;19.30;;;;;;;;;;4976609;28;20049;-74
2022/11/10 06:05:40;;;;;;;35.63;19.77;;;;;;;;;;4979905;28;20050;-74
2022/11/10 06:08:24;;;;;;;30.00;19.33;;;;;;;;;;4978717;28;20121;-75
2022/11/10 06:11:08;;;;;;;36.30;21.50;;;;;;;;;;4976583;28;20498;-75
2022/11/10 06:13:51;;;;;;;36.60;22.05;;;;;;;;;;4976371;28;20556;-74
2022/11/10 06:16:35;;;;;;;34.40;21.83;;;;;;;;;;4979577;28;20110;-74
2022/11/10 06:19:19;;;;;;;37.75;23.35;;;;;;;;;;4979966;28;20130;-75
2022/11/10 06:22:03;;;;;;;40.72;23.80;;;;;;;;;;4979657;28;20042;-75
2022/11/10 06:24:47;;;;;;;51.53;27.58;;;;;;;;;;4979412;28;20149;-74
2022/11/10 06:27:31;;;;;;;59.45;31.60;;;;;;;;;;4978239;28;20506;-73
2022/11/10 06:30:15;;;;;;;55.55;30.80;;;;;;;;;;4978785;28;20509;-73
2022/11/10 06:32:59;;;;;;;57.53;30.48;;;;;;;;;;4978784;28;20045;-73
2022/11/10 06:35:44;;;;;;;52.38;30.42;;;;;;;;;;4978717;28;20097;-73
2022/11/10 06:38:28;;;;;;;52.03;29.30;;;;;;;;;;4977710;28;20045;-71
2022/11/10 06:41:12;;;;;;;51.45;28.75;;;;;;;;;;4977474;28;20115;-71
2022/11/10 06:43:56;;;;;;;52.83;30.17;;;;;;;;;;4978784;28;20546;-71
2022/11/10 06:46:40;;;;;;;61.38;33.33;;;;;;;;;;4978166;28;20069;-71
2022/11/10 06:49:24;;;;;;;54.33;30.35;;;;;;;;;;4978088;28;20042;-71
2022/11/10 06:52:08;;;;;;;45.97;26.98;;;;;;;;;;4977760;28;20399;-71
2022/11/10 06:54:53;;;;;;;44.70;25.83;;;;;;;;;;4978329;28;20073;-72
2022/11/10 06:57:38;;;;;;;50.17;27.25;;;;;;;;;;4977979;28;20088;-72
2022/11/10 07:00:23;;;;;;;56.97;31.60;;;;;;;;;;4977101;28;20053;-72
2022/11/10 07:03:11;;;;;;;41.95;24.60;;;;;;;;;;4977753;28;20037;-72
2022/11/10 07:05:55;;;;;;;39.40;22.75;;;;;;;;;;4978119;28;20407;-72
2022/11/10 07:08:38;;;;;;;35.47;21.10;;;;;;;;;;4975978;28;20041;-72
2022/11/10 07:11:24;;;;;;;32.22;20.15;;;;;;;;;;4975605;28;20471;-72
2022/11/10 07:14:09;;;;;;;30.98;19.70;;;;;;;;;;4975336;28;20061;-72
2022/11/10 07:16:53;;;;;;;35.90;20.73;;;;;;;;;;4976148;28;20093;-72
2022/11/10 07:19:37;;;;;;;44.92;25.70;;;;;;;;;;4976692;28;20038;-72
2022/11/10 07:22:22;;;;;;;47.83;28.55;;;;;;;;;;4976408;28;20093;-73
2022/11/10 07:25:07;;;;;;;49.25;27.50;;;;;;;;;;4976298;28;20146;-73
2022/11/10 07:27:54;;;;;;;43.90;26.42;;;;;;;;;;4988745;28;20102;-73
2022/11/10 07:30:40;;;;;;;45.67;25.80;;;;;;;;;;4976497;28;20046;-73
2022/11/10 07:33:24;;;;;;;43.13;25.15;;;;;;;;;;4976391;28;20106;-73
2022/11/10 07:36:08;;;;;;;37.55;23.52;;;;;;;;;;4976493;28;20046;-73
2022/11/10 07:38:52;;;;;;;37.80;23.77;;;;;;;;;;4976253;28;20118;-72
2022/11/10 07:41:36;;;;;;;46.30;26.33;;;;;;;;;;4976223;28;20041;-72
2022/11/10 07:44:20;;;;;;;42.05;24.63;;;;;;;;;;4976224;28;20517;-73
2022/11/10 07:47:05;;;;;;;38.70;23.00;;;;;;;;;;4976060;28;20057;-73
2022/11/10 07:49:49;;;;;;;35.05;21.67;;;;;;;;;;4976374;28;20166;-73
2022/11/10 07:52:33;;;;;;;33.95;20.58;;;;;;;;;;4975091;28;20134;-73
2022/11/10 07:55:20;;;;;;;34.45;20.95;;;;;;;;;;4976059;28;20117;-73
2022/11/10 07:58:05;;;;;;;34.10;20.73;;;;;;;;;;4976049;28;20046;-73
2022/11/10 08:00:49;;;;;;;36.92;20.83;;;;;;;;;;4975017;28;20146;-73
2022/11/10 08:03:33;;;;;;;38.05;22.17;;;;;;;;;;4976031;28;20046;-73
2022/11/10 08:06:17;;;;;;;36.85;22.17;;;;;;;;;;4974984;28;20045;-73
2022/11/10 08:09:01;;;;;;;38.63;22.42;;;;;;;;;;4975422;28;20525;-73
2022/11/10 08:11:44;;;;;;;36.83;23.15;;;;;;;;;;4975622;28;20041;-73
2022/11/10 08:14:29;;;;;;;35.13;21.50;;;;;;;;;;4975599;28;20403;-73
2022/11/10 08:17:13;;;;;;;33.05;20.38;;;;;;;;;;4974636;28;20482;-73
2022/11/10 08:19:57;;;;;;;33.70;21.00;;;;;;;;;;4975627;28;20105;-73
2022/11/10 08:22:43;;;;;;;36.80;21.65;;;;;;;;;;4974428;28;20057;-73
2022/11/10 08:25:30;;;;;;;37.95;21.35;;;;;;;;;;4969943;28;20045;-72
2022/11/10 08:28:15;;;;;;;38.88;21.50;;;;;;;;;;4985395;28;20042;-71
2022/11/10 08:31:01;;;;;;;34.25;20.67;;;;;;;;;;4971571;28;20085;-71
2022/11/10 08:33:47;;;;;;;37.42;20.52;;;;;;;;;;4972298;28;20049;-71
2022/11/10 08:36:31;;;;;;;34.10;20.77;;;;;;;;;;4973079;28;20109;-71
2022/11/10 08:39:15;;;;;;;37.58;21.17;;;;;;;;;;4973385;28;20518;-71
2022/11/10 08:41:58;;;;;;;34.90;21.17;;;;;;;;;;4972195;28;20045;-71
2022/11/10 08:44:42;;;;;;;37.00;21.92;;;;;;;;;;4971831;28;20046;-71
2022/11/10 08:47:26;;;;;;;46.92;24.23;;;;;;;;;;4970925;28;20097;-71
2022/11/10 08:50:10;;;;;;;40.38;24.30;;;;;;;;;;4972066;28;20070;-71
2022/11/10 08:52:54;;;;;;;37.45;22.08;;;;;;;;;;4971217;28;20074;-71
2022/11/10 08:55:39;;;;;;;36.42;22.23;;;;;;;;;;4971742;28;20050;-71
2022/11/10 08:58:23;;;;;;;38.42;22.50;;;;;;;;;;4971171;28;20077;-71
2022/11/10 09:01:07;;;;;;;37.60;22.60;;;;;;;;;;4971518;28;20092;-71
2022/11/10 09:03:51;;;;;;;42.72;24.15;;;;;;;;;;4971622;28;20438;-72
2022/11/10 09:06:35;;;;;;;38.28;22.25;;;;;;;;;;4971859;28;20105;-71
2022/11/10 09:09:19;;;;;;;35.92;21.00;;;;;;;;;;4972098;28;20093;-74
2022/11/10 09:12:03;;;;;;;44.20;23.88;;;;;;;;;;4972201;28;20050;-71
2022/11/10 09:14:47;;;;;;;31.80;19.48;;;;;;;;;;4972305;28;20138;-71
2022/11/10 09:17:31;;;;;;;38.45;21.45;;;;;;;;;;4971001;28;20121;-70
2022/11/10 09:20:15;;;;;;;30.08;17.58;;;;;;;;;;4972065;28;20053;-72
2022/11/10 09:23:08;;;;;;;34.38;20.63;;;;;;;;;;4971163;28;20057;-71
2022/11/10 09:25:54;;;;;;;37.95;21.48;;;;;;;;;;4971322;28;20046;-72
2022/11/10 09:28:38;;;;;;;34.28;19.48;;;;;;;;;;4969358;28;20100;-72
2022/11/10 09:31:22;;;;;;;35.35;21.48;;;;;;;;;;4971274;28;20049;-72
2022/11/10 09:34:05;;;;;;;34.35;19.90;;;;;;;;;;4967404;28;20425;-72
2022/11/10 09:36:49;;;;;;;34.00;19.35;;;;;;;;;;4971526;28;20045;-72
2022/11/10 09:39:33;;;;;;;37.35;22.08;;;;;;;;;;4971009;28;20049;-72
2022/11/10 09:42:35;;;;;;;40.05;22.88;;;;;;;;;;4971506;28;20177;-72
2022/11/10 09:45:22;;;;;;;33.45;20.45;;;;;;;;;;4969258;28;20046;-72
2022/11/10 09:48:11;;;;;;;36.47;21.98;;;;;;;;;;4970742;28;20630;-72
2022/11/10 09:51:01;;;;;;;37.78;22.17;;;;;;;;;;4970730;28;20046;-72
2022/11/10 09:53:48;;;;;;;39.13;23.05;;;;;;;;;;4970817;28;20058;-72
2022/11/10 09:56:35;;;;;;;38.70;22.67;;;;;;;;;;4970963;28;20089;-72
2022/11/10 09:59:23;;;;;;;35.75;21.27;;;;;;;;;;4970826;28;20125;-72
2022/11/10 10:02:30;;;;;;;37.28;22.65;;;;;;;;;;4970829;28;20053;-72
2022/11/10 10:05:13;;;;;;;40.90;23.02;;;;;;;;;;4970401;28;20542;-72
2022/11/10 10:08:03;;;;;;;34.25;22.00;;;;;;;;;;4970797;28;20085;-72
2022/11/10 10:10:50;;;;;;;38.25;22.60;;;;;;;;;;4970716;28;20605;-72
2022/11/10 10:13:44;;;;;;;34.58;21.23;;;;;;;;;;4970475;28;20692;-72
2022/11/10 10:16:48;;;;;;;42.03;22.23;;;;;;;;;;4970601;28;20430;-72
2022/11/10 10:19:50;;;;;;;36.05;21.70;;;;;;;;;;4969128;28;20038;-72
2022/11/10 10:22:44;;;;;;;37.58;21.33;;;;;;;;;;4969936;28;20061;-72
2022/11/10 10:25:30;;;;;;;37.08;19.38;;;;;;;;;;4971121;28;20042;-72
2022/11/10 10:28:35;;;;;;;33.42;20.35;;;;;;;;;;4975123;28;20042;-72
2022/11/10 10:31:23;;;;;;;34.38;19.58;;;;;;;;;;4975253;28;20074;-72
2022/11/10 10:34:15;;;;;;;37.90;20.77;;;;;;;;;;4972195;28;20081;-72
2022/11/10 10:36:59;;;;;;;36.40;21.33;;;;;;;;;;4973702;28;20047;-72
2022/11/10 10:39:45;;;;;;;37.33;22.02;;;;;;;;;;4974614;28;20074;-72
2022/11/10 10:42:34;;;;;;;33.88;19.13;;;;;;;;;;4989087;28;20033;-72
2022/11/10 10:45:20;;;;;;;34.13;20.67;;;;;;;;;;4992938;28;20185;-72
2022/11/10 10:48:24;;;;;;;36.80;21.67;;;;;;;;;;4992567;28;20092;-72
2022/11/10 10:51:08;;;;;;;31.45;18.73;;;;;;;;;;4992665;28;20541;-72
2022/11/10 10:53:52;;;;;;;27.08;17.08;;;;;;;;;;4993192;28;20070;-72
2022/11/10 10:56:36;;;;;;;31.55;19.52;;;;;;;;;;4992702;28;20045;-72
2022/11/10 10:59:22;;;;;;;31.80;19.23;;;;;;;;;;4993791;28;20513;-72
2022/11/10 11:02:26;;;;;;;26.02;16.75;;;;;;;;;;4998060;28;20461;-72
2022/11/10 11:08:51;;;;;;;21.05;13.23;;;;;;;;;;4997147;28;20081;-72
2022/11/10 11:15:21;;;;;;;22.52;13.88;;;;;;;;;;4997026;28;20053;-72
2022/11/10 11:21:51;;;;;;;22.13;13.80;;;;;;;;;;4996793;28;20057;-71
2022/11/10 11:32:37;;;;;;;;;;;;;;;;;;4977951;28;20098;-71
2022/11/10 11:36:09;;;;;;;21.70;11.93;;;;;;;;;;4982419;28;19917;-70
2022/11/10 11:39:11;;;;;;;22.13;13.98;;;;;;;;;;4976458;28;20598;-70
2022/11/10 11:41:55;;;;;;;19.60;13.02;;;;;;;;;;4976633;28;20297;-70
2022/11/10 11:44:45;;;;;;;22.80;14.05;;;;;;;;;;4975841;28;20042;-71
2022/11/10 11:47:32;;;;;;;20.15;12.88;;;;;;;;;;4975534;28;20490;-70
2022/11/10 11:50:27;;;;;;;21.42;12.93;;;;;;;;;;4977029;28;20093;-70
2022/11/10 11:53:30;;;;;;;21.67;12.50;;;;;;;;;;4977353;28;20126;-70
2022/11/10 11:56:14;;;;;;;20.27;11.88;;;;;;;;;;4975763;28;20494;-70
2022/11/10 11:59:17;;;;;;;21.77;12.50;;;;;;;;;;4974606;28;20520;-70
2022/11/10 12:05:42;;;;;;;19.35;11.35;;;;;;;;;;4977306;28;20045;-69
2022/11/10 12:12:01;;;;;;;17.52;10.98;;;;;;;;;;4976217;28;20074;-69
2022/11/10 12:18:29;;;;;;;15.95;9.90;;;;;;;;;;4976616;28;20026;-69
2022/11/10 12:24:51;;;;;;;14.32;9.07;;;;;;;;;;4976477;28;20034;-69
2022/11/10 12:35:41;;;;;;;17.10;11.50;;;;;;;;;;4995764;28;20141;-70
2022/11/10 12:42:00;;;;;;;13.88;9.27;;;;;;;;;;4995617;28;20098;-70
2022/11/10 12:48:20;;;;;;;15.68;9.65;;;;;;;;;;4995281;28;20088;-70
2022/11/10 12:54:39;;;;;;;11.63;7.93;;;;;;;;;;4995359;28;20057;-70
2022/11/10 13:01:03;;;;;;;15.60;9.48;;;;;;;;;;4995269;28;20113;-69
2022/11/10 13:07:22;;;;;;;11.65;7.10;;;;;;;;;;4994831;28;20049;-70
2022/11/10 13:13:44;;;;;;;11.57;7.38;;;;;;;;;;4994779;28;20493;-69
2022/11/10 13:20:03;;;;;;;9.38;7.00;;;;;;;;;;4994720;28;20037;-69
2022/11/10 13:26:38;;;;;;;12.15;7.80;;;;;;;;;;4994577;28;20483;-69
2022/11/10 13:36:59;;;;;;;11.32;7.72;;;;;;;;;;4994760;28;20169;-70
2022/11/10 13:43:18;;;;;;;12.40;8.88;;;;;;;;;;4994609;28;20049;-70
2022/11/10 13:49:43;;;;;;;14.52;8.23;;;;;;;;;;4994557;28;20125;-70
2022/11/10 13:56:22;;;;;;;12.07;8.57;;;;;;;;;;4994445;28;20094;-70
2022/11/10 14:02:45;;;;;;;13.82;10.27;;;;;;;;;;4991485;28;20118;-70
2022/11/10 14:05:30;;;;;;;14.63;10.95;;;;;;;;;;4991445;28;20068;-70
2022/11/10 14:08:16;;;;;;;15.35;10.43;;;;;;;;;;4992842;28;20049;-70
2022/11/10 14:14:55;;;;;;;15.32;10.68;;;;;;;;;;4994344;28;20390;-70
2022/11/10 14:21:24;;;;;;;16.90;10.70;;;;;;;;;;4994263;28;20032;-70
2022/11/10 14:27:43;;;;;;;14.13;9.93;;;;;;;;;;4994104;28;20033;-70
2022/11/10 14:38:05;;;;;;;33.47;19.60;;;;;;;;;;4998003;28;20466;-70
2022/11/10 14:40:50;;;;;;;34.60;21.42;;;;;;;;;;4995235;28;20092;-70
2022/11/10 14:43:35;;;;;;;40.95;23.95;;;;;;;;;;4995380;28;20465;-70
2022/11/10 14:46:22;;;;;;;36.33;21.40;;;;;;;;;;4995799;28;20555;-70
2022/11/10 14:49:08;;;;;;;33.75;17.77;;;;;;;;;;4996091;28;20129;-70
2022/11/10 14:51:56;;;;;;;32.35;16.88;;;;;;;;;;4996338;28;20037;-70
2022/11/10 14:54:42;;;;;;;33.47;16.85;;;;;;;;;;4996410;28;20370;-70
2022/11/10 14:57:27;;;;;;;26.27;15.48;;;;;;;;;;4995892;28;20045;-70
2022/11/10 15:00:20;;;;;;;30.48;15.07;;;;;;;;;;4996226;28;20116;-70
2022/11/10 15:03:06;;;;;;;29.83;16.30;;;;;;;;;;4995805;28;20052;-71
2022/11/10 15:05:50;;;;;;;22.35;13.68;;;;;;;;;;4994474;28;20088;-70
2022/11/10 15:08:34;;;;;;;19.98;12.98;;;;;;;;;;4995343;28;20454;-70
2022/11/10 15:11:38;;;;;;;18.98;12.10;;;;;;;;;;4995848;28;20037;-71
2022/11/10 15:14:35;;;;;;;18.65;12.68;;;;;;;;;;4995041;28;20053;-70
2022/11/10 15:17:20;;;;;;;17.25;11.63;;;;;;;;;;4995605;28;20033;-70
2022/11/10 15:20:25;;;;;;;18.75;12.98;;;;;;;;;;4996186;28;20033;-70
2022/11/10 15:23:36;;;;;;;18.52;12.05;;;;;;;;;;4995714;28;20423;-70
2022/11/10 15:26:21;;;;;;;21.85;13.00;;;;;;;;;;4995170;28;20422;-70
2022/11/10 15:29:15;;;;;;;25.75;12.57;;;;;;;;;;4995437;28;20797;-70
2022/11/10 15:31:59;;;;;;;21.48;10.55;;;;;;;;;;4994716;28;20069;-70
2022/11/10 15:34:44;;;;;;;81.72;32.60;;;;;;;;;;4995826;28;20061;-70
2022/11/10 15:37:29;;;;;;;60.22;26.40;;;;;;;;;;4997080;28;20097;-70
2022/11/10 15:43:48;;;;;;;57.75;27.13;;;;;;;;;;4996743;28;20446;-70
2022/11/10 15:50:10;;;;;;;45.42;22.85;;;;;;;;;;4996630;28;20494;-69
2022/11/10 15:56:29;;;;;;;47.58;23.60;;;;;;;;;;4996482;28;20069;-69
2022/11/10 16:02:48;;;;;;;44.05;21.80;;;;;;;;;;4996128;28;20409;-69
2022/11/10 16:09:09;;;;;;;37.00;20.38;;;;;;;;;;4996014;28;20153;-69
2022/11/10 16:15:29;;;;;;;24.88;15.27;;;;;;;;;;4996156;28;20036;-69
2022/11/10 16:21:48;;;;;;;42.33;21.63;;;;;;;;;;4996030;28;20441;-69
2022/11/10 16:28:09;;;;;;;35.50;19.27;;;;;;;;;;4994035;28;20049;-69
2022/11/10 16:30:53;;;;;;;32.05;18.58;;;;;;;;;;4994199;28;20382;-69
2022/11/10 16:33:37;;;;;;;32.97;18.45;;;;;;;;;;4993704;28;20548;-69
2022/11/10 16:36:25;;;;;;;32.17;17.98;;;;;;;;;;4993842;28;20057;-69
2022/11/10 16:39:13;;;;;;;32.88;19.13;;;;;;;;;;4994118;28;20049;-69
2022/11/10 16:41:57;;;;;;;40.85;23.90;;;;;;;;;;4993601;28;20390;-69
2022/11/10 16:44:42;;;;;;;31.92;19.75;;;;;;;;;;4994298;28;20045;-69
2022/11/10 16:47:26;;;;;;;35.60;22.10;;;;;;;;;;4992903;28;20497;-69
2022/11/10 16:50:43;;;;;;;42.22;23.75;;;;;;;;;;4993922;28;20112;-69
2022/11/10 16:53:29;;;;;;;55.80;28.70;;;;;;;;;;4976521;28;20068;-69
2022/11/10 16:56:14;;;;;;;46.92;25.25;;;;;;;;;;4993526;28;20422;-69
2022/11/10 16:58:58;;;;;;;68.93;34.67;;;;;;;;;;4992674;28;20049;-69
2022/11/10 17:01:44;;;;;;;69.28;36.50;;;;;;;;;;4993002;28;20049;-69
2022/11/10 17:04:28;;;;;;;68.72;38.03;;;;;;;;;;4993209;28;20184;-69
2022/11/10 17:10:48;;;;;;;58.60;32.00;;;;;;;;;;4995082;28;20033;-70
2022/11/10 17:17:13;;;;;;;79.95;38.47;;;;;;;;;;4995020;28;20076;-69
2022/11/10 17:23:34;;;;;;;46.88;26.67;;;;;;;;;;4994955;28;20533;-70
2022/11/10 17:29:52;;;;;;;45.85;23.42;;;;;;;;;;4994833;28;20217;-68
2022/11/10 17:40:27;;;;;;;70.03;34.83;;;;;;;;;;4994717;28;20105;-68
2022/11/10 17:46:47;;;;;;;124.72;68.22;;;;;;;;;;4994576;28;20441;-69
2022/11/10 17:53:12;;;;;;;108.78;64.93;;;;;;;;;;4994958;28;20022;-70
2022/11/10 17:56:12;;;;;;;106.95;62.80;;;;;;;;;;4994730;28;20049;-70
2022/11/10 18:02:30;;;;;;;31.85;18.67;;;;;;;;;;4994528;28;20061;-70
2022/11/10 18:08:49;;;;;;;154.73;91.20;;;;;;;;;;4994113;28;20041;-70
2022/11/10 18:15:12;;;;;;;77.60;44.90;;;;;;;;;;4998334;28;20486;-69
2022/11/10 18:21:31;;;;;;;48.20;30.00;;;;;;;;;;4998246;28;20033;-69
2022/11/10 18:27:50;;;;;;;33.30;20.30;;;;;;;;;;4998063;28;20081;-69
2022/11/10 18:34:09;;;;;;;59.35;33.67;;;;;;;;;;4997774;28;20076;-69
2022/11/10 18:44:56;;;;;;;26.85;17.67;;;;;;;;;;4997870;28;20026;-69
2022/11/10 18:51:15;;;;;;;36.03;23.25;;;;;;;;;;4997759;28;20093;-69
2022/11/10 18:57:34;;;;;;;34.80;20.65;;;;;;;;;;4997602;28;20030;-69
2022/11/10 19:03:53;;;;;;;38.50;24.42;;;;;;;;;;4997532;28;20054;-69
2022/11/10 19:10:12;;;;;;;98.50;55.28;;;;;;;;;;4997378;28;20105;-70
2022/11/10 19:16:32;;;;;;;84.13;47.75;;;;;;;;;;4997267;28;20057;-71
2022/11/10 19:22:51;;;;;;;77.95;44.70;;;;;;;;;;4995762;28;20065;-71
2022/11/10 19:29:10;;;;;;;89.70;47.38;;;;;;;;;;4996693;28;20421;-71
2022/11/10 19:35:30;;;;;;;87.13;47.17;;;;;;;;;;4996914;28;20129;-71
2022/11/10 19:45:51;;;;;;;74.50;42.22;;;;;;;;;;4996798;28;20455;-69
2022/11/10 19:52:10;;;;;;;97.57;58.05;;;;;;;;;;4996360;28;20072;-71
2022/11/10 19:58:29;;;;;;;78.97;48.83;;;;;;;;;;4996473;28;20146;-70
2022/11/10 20:11:39;;;;;;;51.97;33.33;;;;;;;;;;4995962;28;20025;-70
2022/11/10 20:17:59;;;;;;;60.83;34.67;;;;;;;;;;4996121;28;20057;-70
2022/11/10 20:24:18;;;;;;;62.05;37.08;;;;;;;;;;4996007;28;20076;-71
2022/11/10 20:30:40;;;;;;;49.92;30.42;;;;;;;;;;4995906;28;20156;-71
2022/11/10 20:36:59;;;;;;;44.03;27.45;;;;;;;;;;4995770;28;20565;-71
2022/11/10 20:47:21;;;;;;;34.65;22.75;;;;;;;;;;4995372;28;20032;-71
2022/11/10 20:53:40;;;;;;;139.85;47.35;;;;;;;;;;4995423;28;20041;-71
2022/11/10 20:59:59;;;;;;;69.50;33.67;;;;;;;;;;4995312;28;20045;-72
2022/11/10 21:06:18;;;;;;;33.97;22.17;;;;;;;;;;4998055;28;20045;-73
2022/11/10 21:19:32;;;;;;;37.92;24.83;;;;;;;;;;4995008;28;20079;-74
2022/11/10 21:25:52;;;;;;;43.83;25.63;;;;;;;;;;4994920;28;20558;-74
2022/11/10 21:32:10;;;;;;;30.10;20.33;;;;;;;;;;4994649;28;20044;-73
2022/11/10 21:38:29;;;;;;;30.77;20.70;;;;;;;;;;4994725;28;20029;-73
2022/11/10 21:48:50;;;;;;;33.53;21.20;;;;;;;;;;4993129;28;20418;-73
2022/11/10 21:51:34;;;;;;;37.97;23.98;;;;;;;;;;4992520;28;20042;-73
2022/11/10 21:54:18;;;;;;;40.22;24.50;;;;;;;;;;4992668;28;20032;-73
2022/11/10 21:57:02;;;;;;;35.03;23.23;;;;;;;;;;4993060;28;20084;-73
2022/11/10 21:59:47;;;;;;;38.78;24.77;;;;;;;;;;4993106;28;20273;-73
2022/11/10 22:02:31;;;;;;;39.55;23.05;;;;;;;;;;4993041;28;20084;-73
2022/11/10 22:05:15;;;;;;;35.33;23.08;;;;;;;;;;4993215;28;20041;-73
2022/11/10 22:07:59;;;;;;;33.03;21.73;;;;;;;;;;4993142;28;20111;-73
2022/11/10 22:19:52;;;;;;;44.38;25.85;;;;;;;;;;4993658;28;20049;-73
2022/11/10 22:22:36;;;;;;;46.22;27.63;;;;;;;;;;4994393;28;20084;-73
2022/11/10 22:25:20;;;;;;;38.05;24.30;;;;;;;;;;4994197;28;20505;-73
2022/11/10 22:28:04;;;;;;;31.40;21.13;;;;;;;;;;4994125;28;20548;-73
2022/11/10 22:30:48;;;;;;;38.30;23.55;;;;;;;;;;4993444;28;20445;-73